RYR7CX LOWW-LGTS
Flight info
| Callsign | RYR7CX |
|---|---|
| Flight time | 1h 20m |
| Altitude | 37000 |
| Route | ARSIN DCT NALOX DCT OSDUK DCT SOMUN DCT REDVA UL616 KOGAT DCT TALAS UN130 ALIKO |
| Aircraft | A320/M-SDE3FGHIRWY/LB1 |
Departure
| Time | 2026-04-20 04:05 |
|---|---|
| Airport | Vienna International Airport (LOWW) |
Arrival
| Time | 2026-04-20 05:26 |
|---|---|
| Airport | Thessaloniki Macedonia International Airport (LGTS) |
| Time | Latitude | Longitude | Altitude | Speed | Heading |
|---|---|---|---|---|---|
| 2026-04-20 03:54 | 48.11918 | 16.55882 | 624 ft | 3 kts | 274° |
| 2026-04-20 03:54 | 48.11920 | 16.55914 | 621 ft | 3 kts | 233° |
| 2026-04-20 03:55 | 48.11926 | 16.55924 | 617 ft | 0 kts | 206° |
| 2026-04-20 03:58 | 48.11903 | 16.55907 | 620 ft | 6 kts | 206° |
| 2026-04-20 03:58 | 48.11839 | 16.55860 | 609 ft | 13 kts | 206° |
| 2026-04-20 03:58 | 48.11774 | 16.55813 | 620 ft | 10 kts | 206° |
| 2026-04-20 03:58 | 48.11715 | 16.55778 | 616 ft | 9 kts | 181° |
| 2026-04-20 03:59 | 48.11677 | 16.55837 | 612 ft | 8 kts | 117° |
| 2026-04-20 03:59 | 48.11642 | 16.55945 | 616 ft | 16 kts | 116° |
| 2026-04-20 03:59 | 48.11591 | 16.56100 | 612 ft | 16 kts | 116° |
| 2026-04-20 03:59 | 48.11543 | 16.56247 | 620 ft | 15 kts | 116° |
| 2026-04-20 04:00 | 48.11498 | 16.56386 | 615 ft | 14 kts | 116° |
| 2026-04-20 04:00 | 48.11455 | 16.56516 | 617 ft | 14 kts | 116° |
| 2026-04-20 04:00 | 48.11412 | 16.56649 | 616 ft | 14 kts | 115° |
| 2026-04-20 04:00 | 48.11367 | 16.56789 | 617 ft | 17 kts | 116° |
| 2026-04-20 04:01 | 48.11361 | 16.56809 | 612 ft | 16 kts | 116° |
| 2026-04-20 04:01 | 48.11339 | 16.56874 | 615 ft | 16 kts | 116° |
| 2026-04-20 04:01 | 48.11292 | 16.57020 | 619 ft | 15 kts | 116° |
| 2026-04-20 04:01 | 48.11247 | 16.57156 | 613 ft | 14 kts | 116° |
| 2026-04-20 04:02 | 48.11205 | 16.57284 | 612 ft | 13 kts | 116° |
| 2026-04-20 04:02 | 48.11156 | 16.57437 | 609 ft | 18 kts | 115° |
| 2026-04-20 04:02 | 48.11113 | 16.57570 | 615 ft | 10 kts | 116° |
| 2026-04-20 04:02 | 48.11079 | 16.57651 | 609 ft | 7 kts | 143° |
| 2026-04-20 04:03 | 48.11039 | 16.57644 | 609 ft | 6 kts | 204° |
| 2026-04-20 04:03 | 48.11003 | 16.57620 | 609 ft | 7 kts | 205° |
| 2026-04-20 04:03 | 48.10949 | 16.57581 | 617 ft | 9 kts | 207° |
| 2026-04-20 04:03 | 48.10918 | 16.57530 | 614 ft | 5 kts | 257° |
| 2026-04-20 04:04 | 48.10923 | 16.57509 | 615 ft | 0 kts | 293° |
| 2026-04-20 04:04 | 48.10928 | 16.57494 | 616 ft | 16 kts | 293° |
| 2026-04-20 04:04 | 48.11104 | 16.56953 | 623 ft | 95 kts | 296° |
| 2026-04-20 04:05 | 48.11486 | 16.55781 | 628 ft | 151 kts | 293° |
| 2026-04-20 04:05 | 48.11916 | 16.54351 | 1330 ft | 152 kts | 290° |
| 2026-04-20 04:05 | 48.11821 | 16.52763 | 2083 ft | 172 kts | 251° |
| 2026-04-20 04:05 | 48.10836 | 16.51432 | 2515 ft | 214 kts | 215° |
| 2026-04-20 04:06 | 48.09417 | 16.50473 | 3196 ft | 228 kts | 208° |
| 2026-04-20 04:06 | 48.07925 | 16.49629 | 4118 ft | 230 kts | 207° |
| 2026-04-20 04:06 | 48.06417 | 16.48800 | 5043 ft | 232 kts | 207° |
| 2026-04-20 04:06 | 48.04968 | 16.47762 | 5812 ft | 237 kts | 218° |
| 2026-04-20 04:07 | 48.03499 | 16.46393 | 6299 ft | 261 kts | 219° |
| 2026-04-20 04:07 | 48.01930 | 16.44878 | 6999 ft | 274 kts | 219° |
| 2026-04-20 04:07 | 48.00336 | 16.43349 | 7926 ft | 279 kts | 217° |
| 2026-04-20 04:07 | 47.98479 | 16.42314 | 8882 ft | 294 kts | 195° |
| 2026-04-20 04:08 | 47.96394 | 16.42370 | 9856 ft | 308 kts | 173° |
| 2026-04-20 04:08 | 47.94262 | 16.43112 | 10477 ft | 325 kts | 171° |
| 2026-04-20 04:08 | 47.91983 | 16.43921 | 10859 ft | 346 kts | 171° |
| 2026-04-20 04:08 | 47.89614 | 16.44769 | 11619 ft | 353 kts | 171° |
| 2026-04-20 04:09 | 47.87221 | 16.45631 | 12531 ft | 354 kts | 171° |
| 2026-04-20 04:09 | 47.84818 | 16.46494 | 13484 ft | 355 kts | 171° |
| 2026-04-20 04:09 | 47.82409 | 16.47351 | 14349 ft | 357 kts | 171° |
| 2026-04-20 04:09 | 47.80020 | 16.48193 | 15103 ft | 359 kts | 172° |
| 2026-04-20 04:10 | 47.77571 | 16.49052 | 15855 ft | 363 kts | 172° |
| 2026-04-20 04:10 | 47.75107 | 16.49914 | 16591 ft | 366 kts | 172° |
| 2026-04-20 04:10 | 47.72617 | 16.50780 | 17330 ft | 369 kts | 173° |
| 2026-04-20 04:10 | 47.70104 | 16.51657 | 18047 ft | 372 kts | 173° |
| 2026-04-20 04:11 | 47.67584 | 16.52644 | 18719 ft | 380 kts | 166° |
| 2026-04-20 04:11 | 47.65169 | 16.54366 | 19328 ft | 392 kts | 153° |
| 2026-04-20 04:11 | 47.63016 | 16.56932 | 19935 ft | 404 kts | 139° |
| 2026-04-20 04:11 | 47.61272 | 16.60260 | 20547 ft | 414 kts | 124° |
| 2026-04-20 04:12 | 47.60032 | 16.64084 | 21138 ft | 421 kts | 116° |
| 2026-04-20 04:12 | 47.58866 | 16.68076 | 21753 ft | 425 kts | 116° |
| 2026-04-20 04:12 | 47.57387 | 16.71851 | 22338 ft | 422 kts | 133° |
| 2026-04-20 04:12 | 47.55260 | 16.74765 | 22921 ft | 415 kts | 152° |
| 2026-04-20 04:13 | 47.52688 | 16.76597 | 23498 ft | 407 kts | 169° |
| 2026-04-20 04:13 | 47.49929 | 16.77248 | 23989 ft | 398 kts | 186° |
| 2026-04-20 04:13 | 47.47197 | 16.76845 | 24467 ft | 394 kts | 194° |
| 2026-04-20 04:13 | 47.44433 | 16.76557 | 24935 ft | 403 kts | 185° |
| 2026-04-20 04:14 | 47.41647 | 16.76751 | 25400 ft | 408 kts | 182° |
| 2026-04-20 04:14 | 47.38811 | 16.76999 | 25869 ft | 409 kts | 182° |
| 2026-04-20 04:14 | 47.35961 | 16.77268 | 26321 ft | 412 kts | 182° |
| 2026-04-20 04:14 | 47.33089 | 16.77551 | 26764 ft | 414 kts | 182° |
| 2026-04-20 04:15 | 47.30201 | 16.77838 | 27193 ft | 417 kts | 182° |
| 2026-04-20 04:15 | 47.27298 | 16.78127 | 27585 ft | 420 kts | 182° |
| 2026-04-20 04:15 | 47.24376 | 16.78412 | 28004 ft | 422 kts | 182° |
| 2026-04-20 04:15 | 47.21434 | 16.78862 | 28412 ft | 431 kts | 173° |
| 2026-04-20 04:16 | 47.18576 | 16.80395 | 28766 ft | 447 kts | 156° |
| 2026-04-20 04:16 | 47.15980 | 16.82878 | 29115 ft | 454 kts | 150° |
| 2026-04-20 04:16 | 47.13371 | 16.85527 | 29474 ft | 457 kts | 150° |
| 2026-04-20 04:16 | 47.10759 | 16.88206 | 29828 ft | 460 kts | 150° |
| 2026-04-20 04:17 | 47.08127 | 16.90910 | 30173 ft | 463 kts | 150° |
| 2026-04-20 04:17 | 47.05480 | 16.93626 | 30449 ft | 465 kts | 150° |
| 2026-04-20 04:17 | 47.02819 | 16.96350 | 30711 ft | 468 kts | 150° |
| 2026-04-20 04:17 | 47.00141 | 16.99079 | 30970 ft | 470 kts | 150° |
| 2026-04-20 04:18 | 46.97445 | 17.01812 | 31228 ft | 473 kts | 150° |
| 2026-04-20 04:18 | 46.94757 | 17.04504 | 31469 ft | 474 kts | 150° |
| 2026-04-20 04:18 | 46.92007 | 17.07185 | 31685 ft | 477 kts | 151° |
| 2026-04-20 04:18 | 46.89233 | 17.09841 | 32013 ft | 476 kts | 151° |
| 2026-04-20 04:19 | 46.86454 | 17.12479 | 32368 ft | 476 kts | 151° |
| 2026-04-20 04:19 | 46.83679 | 17.15112 | 32718 ft | 476 kts | 151° |
| 2026-04-20 04:19 | 46.80906 | 17.17743 | 33058 ft | 475 kts | 151° |
| 2026-04-20 04:19 | 46.78132 | 17.20377 | 33403 ft | 475 kts | 151° |
| 2026-04-20 04:20 | 46.75368 | 17.23014 | 33758 ft | 475 kts | 150° |
| 2026-04-20 04:20 | 46.72607 | 17.25659 | 34108 ft | 475 kts | 150° |
| 2026-04-20 04:20 | 46.69852 | 17.28303 | 34409 ft | 474 kts | 150° |
| 2026-04-20 04:20 | 46.67136 | 17.30907 | 34722 ft | 472 kts | 150° |
| 2026-04-20 04:21 | 46.64392 | 17.33527 | 35041 ft | 472 kts | 150° |
| 2026-04-20 04:21 | 46.61648 | 17.36131 | 35323 ft | 471 kts | 150° |
| 2026-04-20 04:21 | 46.58895 | 17.38734 | 35587 ft | 471 kts | 150° |
| 2026-04-20 04:21 | 46.56148 | 17.41330 | 35842 ft | 472 kts | 150° |
| 2026-04-20 04:22 | 46.53395 | 17.43929 | 36091 ft | 472 kts | 150° |
| 2026-04-20 04:22 | 46.50645 | 17.46523 | 36349 ft | 472 kts | 150° |
| 2026-04-20 04:22 | 46.47897 | 17.49116 | 36609 ft | 471 kts | 150° |
| 2026-04-20 04:22 | 46.45183 | 17.51676 | 36833 ft | 471 kts | 150° |
| 2026-04-20 04:23 | 46.42429 | 17.54270 | 37027 ft | 472 kts | 150° |
| 2026-04-20 04:23 | 46.39680 | 17.56859 | 37066 ft | 470 kts | 150° |
| 2026-04-20 04:23 | 46.34203 | 17.61998 | 37063 ft | 469 kts | 150° |
| 2026-04-20 04:24 | 46.28736 | 17.67110 | 37062 ft | 468 kts | 150° |
| 2026-04-20 04:24 | 46.23291 | 17.72192 | 37062 ft | 468 kts | 150° |
| 2026-04-20 04:25 | 46.17818 | 17.77296 | 37047 ft | 469 kts | 150° |
| 2026-04-20 04:25 | 46.12339 | 17.82398 | 37059 ft | 469 kts | 150° |
| 2026-04-20 04:26 | 46.06858 | 17.87482 | 37060 ft | 468 kts | 150° |
| 2026-04-20 04:26 | 46.01420 | 17.92508 | 37059 ft | 468 kts | 150° |
| 2026-04-20 04:27 | 45.95941 | 17.97561 | 37058 ft | 468 kts | 151° |
| 2026-04-20 04:27 | 45.90462 | 18.02604 | 37043 ft | 468 kts | 151° |
| 2026-04-20 04:28 | 45.84979 | 18.07643 | 37045 ft | 468 kts | 151° |
| 2026-04-20 04:28 | 45.79525 | 18.12651 | 37045 ft | 469 kts | 151° |
| 2026-04-20 04:29 | 45.73968 | 18.17535 | 37046 ft | 468 kts | 153° |
| 2026-04-20 04:29 | 45.68320 | 18.22154 | 37034 ft | 468 kts | 154° |
| 2026-04-20 04:30 | 45.62661 | 18.26746 | 37030 ft | 468 kts | 154° |
| 2026-04-20 04:30 | 45.57059 | 18.31372 | 37038 ft | 469 kts | 153° |
| 2026-04-20 04:31 | 45.51422 | 18.36064 | 37037 ft | 469 kts | 153° |
| 2026-04-20 04:31 | 45.45773 | 18.40749 | 37037 ft | 470 kts | 153° |
| 2026-04-20 04:32 | 45.40108 | 18.45402 | 37032 ft | 470 kts | 153° |
| 2026-04-20 04:32 | 45.34484 | 18.50013 | 37039 ft | 470 kts | 153° |
| 2026-04-20 04:33 | 45.28822 | 18.54654 | 37027 ft | 470 kts | 153° |
| 2026-04-20 04:33 | 45.23151 | 18.59289 | 37030 ft | 470 kts | 153° |
| 2026-04-20 04:34 | 45.17474 | 18.63915 | 37031 ft | 471 kts | 153° |
| 2026-04-20 04:34 | 45.11836 | 18.68506 | 37045 ft | 471 kts | 153° |
| 2026-04-20 04:35 | 45.06150 | 18.73126 | 37040 ft | 471 kts | 153° |
| 2026-04-20 04:35 | 45.00477 | 18.77739 | 37045 ft | 470 kts | 153° |
| 2026-04-20 04:36 | 44.91961 | 18.84605 | 37038 ft | 470 kts | 153° |
| 2026-04-20 04:37 | 44.86325 | 18.89141 | 37038 ft | 470 kts | 153° |
| 2026-04-20 04:37 | 44.80653 | 18.93710 | 37037 ft | 470 kts | 153° |
| 2026-04-20 04:38 | 44.74979 | 18.98261 | 37018 ft | 470 kts | 153° |
| 2026-04-20 04:38 | 44.69297 | 19.02795 | 37021 ft | 470 kts | 153° |
| 2026-04-20 04:39 | 44.63653 | 19.07305 | 37026 ft | 470 kts | 153° |
| 2026-04-20 04:39 | 44.57992 | 19.11895 | 37028 ft | 471 kts | 151° |
| 2026-04-20 04:40 | 44.52545 | 19.17020 | 37017 ft | 472 kts | 147° |
| 2026-04-20 04:40 | 44.47222 | 19.22398 | 37024 ft | 471 kts | 147° |
| 2026-04-20 04:41 | 44.41902 | 19.27652 | 37027 ft | 471 kts | 148° |
| 2026-04-20 04:41 | 44.36493 | 19.32815 | 37033 ft | 470 kts | 148° |
| 2026-04-20 04:42 | 44.31078 | 19.37941 | 37037 ft | 470 kts | 148° |
| 2026-04-20 04:42 | 44.25673 | 19.43076 | 37026 ft | 470 kts | 148° |
| 2026-04-20 04:43 | 44.20308 | 19.48186 | 37030 ft | 470 kts | 148° |
| 2026-04-20 04:43 | 44.14914 | 19.53324 | 37029 ft | 470 kts | 148° |
| 2026-04-20 04:44 | 44.09512 | 19.58440 | 37029 ft | 470 kts | 148° |
| 2026-04-20 04:44 | 44.04137 | 19.63516 | 37011 ft | 470 kts | 148° |
| 2026-04-20 04:45 | 43.98724 | 19.68627 | 37010 ft | 471 kts | 148° |
| 2026-04-20 04:45 | 43.93306 | 19.73730 | 37011 ft | 471 kts | 148° |
| 2026-04-20 04:46 | 43.87876 | 19.78830 | 37008 ft | 471 kts | 148° |
| 2026-04-20 04:46 | 43.82485 | 19.83879 | 37008 ft | 471 kts | 148° |
| 2026-04-20 04:47 | 43.77054 | 19.88948 | 37019 ft | 471 kts | 148° |
| 2026-04-20 04:47 | 43.71630 | 19.94008 | 37022 ft | 470 kts | 148° |
| 2026-04-20 04:48 | 43.66203 | 19.99061 | 37026 ft | 470 kts | 148° |
| 2026-04-20 04:48 | 43.60779 | 20.04103 | 37026 ft | 470 kts | 148° |
| 2026-04-20 04:49 | 43.55390 | 20.09091 | 37022 ft | 470 kts | 148° |
| 2026-04-20 04:49 | 43.49957 | 20.14107 | 37029 ft | 470 kts | 148° |
| 2026-04-20 04:50 | 43.44531 | 20.19116 | 37033 ft | 470 kts | 148° |
| 2026-04-20 04:50 | 43.39106 | 20.24126 | 37033 ft | 470 kts | 148° |
| 2026-04-20 04:51 | 43.33713 | 20.29080 | 37033 ft | 470 kts | 148° |
| 2026-04-20 04:51 | 43.28279 | 20.34049 | 37044 ft | 469 kts | 148° |
| 2026-04-20 04:52 | 43.22845 | 20.39015 | 37040 ft | 469 kts | 148° |
| 2026-04-20 04:52 | 43.17417 | 20.43968 | 37042 ft | 469 kts | 148° |
| 2026-04-20 04:53 | 43.11983 | 20.48910 | 37030 ft | 469 kts | 148° |
| 2026-04-20 04:53 | 43.06593 | 20.53812 | 37044 ft | 468 kts | 148° |
| 2026-04-20 04:54 | 43.01099 | 20.58549 | 37043 ft | 465 kts | 156° |
| 2026-04-20 04:54 | 42.95129 | 20.61849 | 37039 ft | 462 kts | 161° |
| 2026-04-20 04:55 | 42.89167 | 20.64988 | 37038 ft | 462 kts | 161° |
| 2026-04-20 04:55 | 42.83174 | 20.68151 | 37033 ft | 462 kts | 161° |
| 2026-04-20 04:56 | 42.77180 | 20.71307 | 37026 ft | 462 kts | 161° |
| 2026-04-20 04:56 | 42.71185 | 20.74453 | 37028 ft | 462 kts | 161° |
| 2026-04-20 04:57 | 42.65184 | 20.77606 | 37019 ft | 462 kts | 161° |
| 2026-04-20 04:57 | 42.59225 | 20.80717 | 37027 ft | 462 kts | 161° |
| 2026-04-20 04:58 | 42.53215 | 20.83849 | 37026 ft | 462 kts | 161° |
| 2026-04-20 04:58 | 42.47211 | 20.86969 | 37013 ft | 462 kts | 161° |
| 2026-04-20 04:59 | 42.41208 | 20.90084 | 37017 ft | 463 kts | 161° |
| 2026-04-20 04:59 | 42.35231 | 20.93185 | 37022 ft | 463 kts | 161° |
| 2026-04-20 05:00 | 42.29218 | 20.96297 | 37022 ft | 463 kts | 161° |
| 2026-04-20 05:00 | 42.23206 | 20.99404 | 37021 ft | 463 kts | 161° |
| 2026-04-20 05:01 | 42.17192 | 21.02507 | 37028 ft | 463 kts | 161° |
| 2026-04-20 05:01 | 42.11251 | 21.05708 | 37019 ft | 464 kts | 155° |
| 2026-04-20 05:02 | 42.05720 | 21.10229 | 37034 ft | 466 kts | 149° |
| 2026-04-20 05:02 | 42.00225 | 21.14876 | 37031 ft | 467 kts | 149° |
| 2026-04-20 05:03 | 41.94725 | 21.19519 | 37037 ft | 467 kts | 149° |
| 2026-04-20 05:03 | 41.91969 | 21.21840 | 36796 ft | 470 kts | 149° |
| 2026-04-20 05:03 | 41.89238 | 21.24138 | 36216 ft | 468 kts | 149° |
| 2026-04-20 05:03 | 41.86486 | 21.26454 | 35661 ft | 466 kts | 149° |
| 2026-04-20 05:04 | 41.83746 | 21.28754 | 35116 ft | 464 kts | 149° |
| 2026-04-20 05:04 | 41.81014 | 21.31046 | 34581 ft | 462 kts | 149° |
| 2026-04-20 05:04 | 41.78294 | 21.33327 | 34048 ft | 461 kts | 149° |
| 2026-04-20 05:04 | 41.75579 | 21.35601 | 33426 ft | 460 kts | 149° |
| 2026-04-20 05:05 | 41.72860 | 21.37875 | 32754 ft | 462 kts | 149° |
| 2026-04-20 05:05 | 41.70129 | 21.40150 | 32094 ft | 463 kts | 149° |
| 2026-04-20 05:05 | 41.67419 | 21.42402 | 31442 ft | 466 kts | 149° |
| 2026-04-20 05:05 | 41.64660 | 21.44695 | 30806 ft | 468 kts | 149° |
| 2026-04-20 05:06 | 41.61893 | 21.47000 | 30184 ft | 470 kts | 149° |
| 2026-04-20 05:06 | 41.59117 | 21.49314 | 29484 ft | 472 kts | 149° |
| 2026-04-20 05:06 | 41.56331 | 21.51634 | 28762 ft | 472 kts | 149° |
| 2026-04-20 05:06 | 41.53556 | 21.53939 | 27986 ft | 467 kts | 149° |
| 2026-04-20 05:07 | 41.50809 | 21.56220 | 27229 ft | 462 kts | 149° |
| 2026-04-20 05:07 | 41.48095 | 21.58471 | 26507 ft | 457 kts | 149° |
| 2026-04-20 05:07 | 41.45440 | 21.60668 | 25817 ft | 453 kts | 149° |
| 2026-04-20 05:07 | 41.42776 | 21.62865 | 25123 ft | 449 kts | 149° |
| 2026-04-20 05:08 | 41.40135 | 21.65042 | 24465 ft | 445 kts | 149° |
| 2026-04-20 05:08 | 41.37518 | 21.67200 | 23824 ft | 441 kts | 149° |
| 2026-04-20 05:08 | 41.34921 | 21.69335 | 23090 ft | 437 kts | 149° |
| 2026-04-20 05:08 | 41.32346 | 21.71450 | 22400 ft | 433 kts | 149° |
| 2026-04-20 05:09 | 41.29790 | 21.73549 | 21744 ft | 430 kts | 149° |
| 2026-04-20 05:09 | 41.27256 | 21.75630 | 21124 ft | 427 kts | 149° |
| 2026-04-20 05:09 | 41.24773 | 21.77667 | 20533 ft | 423 kts | 149° |
| 2026-04-20 05:09 | 41.22278 | 21.79715 | 19972 ft | 421 kts | 149° |
| 2026-04-20 05:10 | 41.19801 | 21.81749 | 19423 ft | 417 kts | 149° |
| 2026-04-20 05:10 | 41.17340 | 21.83765 | 18884 ft | 414 kts | 149° |
| 2026-04-20 05:10 | 41.14895 | 21.85764 | 18355 ft | 411 kts | 149° |
| 2026-04-20 05:10 | 41.12470 | 21.87745 | 17768 ft | 407 kts | 149° |
| 2026-04-20 05:11 | 41.10071 | 21.89723 | 17214 ft | 404 kts | 147° |
| 2026-04-20 05:11 | 41.07865 | 21.91998 | 16635 ft | 401 kts | 138° |
| 2026-04-20 05:11 | 41.05962 | 21.94676 | 16048 ft | 399 kts | 128° |
| 2026-04-20 05:11 | 41.04331 | 21.97554 | 15511 ft | 395 kts | 127° |
| 2026-04-20 05:12 | 41.02751 | 22.00513 | 14936 ft | 391 kts | 119° |
| 2026-04-20 05:12 | 41.01504 | 22.03696 | 14411 ft | 388 kts | 116° |
| 2026-04-20 05:12 | 41.00315 | 22.06882 | 13868 ft | 385 kts | 115° |
| 2026-04-20 05:12 | 40.99138 | 22.10050 | 13307 ft | 381 kts | 115° |
| 2026-04-20 05:13 | 40.97978 | 22.13186 | 12758 ft | 377 kts | 116° |
| 2026-04-20 05:13 | 40.96852 | 22.16289 | 12266 ft | 371 kts | 116° |
| 2026-04-20 05:13 | 40.95753 | 22.19356 | 11782 ft | 365 kts | 115° |
| 2026-04-20 05:13 | 40.94700 | 22.22304 | 11536 ft | 354 kts | 115° |
| 2026-04-20 05:14 | 40.93664 | 22.25202 | 11283 ft | 343 kts | 115° |
| 2026-04-20 05:14 | 40.92661 | 22.28012 | 11039 ft | 333 kts | 115° |
| 2026-04-20 05:14 | 40.91689 | 22.30739 | 10792 ft | 324 kts | 115° |
| 2026-04-20 05:14 | 40.90743 | 22.33394 | 10550 ft | 315 kts | 115° |
| 2026-04-20 05:15 | 40.89823 | 22.35982 | 10303 ft | 308 kts | 115° |
| 2026-04-20 05:15 | 40.88925 | 22.38509 | 10068 ft | 300 kts | 115° |
| 2026-04-20 05:15 | 40.88057 | 22.40959 | 9725 ft | 296 kts | 115° |
| 2026-04-20 05:15 | 40.87189 | 22.43412 | 9359 ft | 294 kts | 115° |
| 2026-04-20 05:16 | 40.86324 | 22.45851 | 8950 ft | 292 kts | 116° |
| 2026-04-20 05:16 | 40.85473 | 22.48272 | 8560 ft | 290 kts | 115° |
| 2026-04-20 05:16 | 40.84629 | 22.50684 | 8153 ft | 288 kts | 115° |
| 2026-04-20 05:16 | 40.83792 | 22.53077 | 7757 ft | 286 kts | 115° |
| 2026-04-20 05:17 | 40.82960 | 22.55455 | 7342 ft | 284 kts | 115° |
| 2026-04-20 05:17 | 40.82132 | 22.57814 | 6944 ft | 283 kts | 115° |
| 2026-04-20 05:17 | 40.81308 | 22.60163 | 6525 ft | 281 kts | 115° |
| 2026-04-20 05:17 | 40.80499 | 22.62464 | 6104 ft | 279 kts | 115° |
| 2026-04-20 05:18 | 40.79683 | 22.64784 | 5671 ft | 278 kts | 115° |
| 2026-04-20 05:18 | 40.78879 | 22.67072 | 5412 ft | 269 kts | 115° |
| 2026-04-20 05:18 | 40.78110 | 22.69257 | 5285 ft | 256 kts | 115° |
| 2026-04-20 05:18 | 40.77379 | 22.71341 | 5159 ft | 244 kts | 115° |
| 2026-04-20 05:19 | 40.76913 | 22.72669 | 5067 ft | 237 kts | 115° |
| 2026-04-20 05:19 | 40.75999 | 22.75275 | 4710 ft | 233 kts | 115° |
| 2026-04-20 05:19 | 40.75551 | 22.76555 | 4502 ft | 231 kts | 115° |
| 2026-04-20 05:19 | 40.74663 | 22.79092 | 4097 ft | 229 kts | 116° |
| 2026-04-20 05:20 | 40.74004 | 22.80985 | 3828 ft | 226 kts | 116° |
| 2026-04-20 05:20 | 40.73355 | 22.82857 | 3528 ft | 223 kts | 115° |
| 2026-04-20 05:20 | 40.72686 | 22.84681 | 3379 ft | 221 kts | 122° |
| 2026-04-20 05:20 | 40.72144 | 22.85821 | 3277 ft | 221 kts | 124° |
| 2026-04-20 05:21 | 40.71290 | 22.87495 | 3131 ft | 219 kts | 126° |
| 2026-04-20 05:21 | 40.70434 | 22.89149 | 2996 ft | 218 kts | 126° |
| 2026-04-20 05:21 | 40.69541 | 22.90735 | 2870 ft | 211 kts | 136° |
| 2026-04-20 05:21 | 40.68372 | 22.91795 | 2743 ft | 200 kts | 158° |
| 2026-04-20 05:22 | 40.66626 | 22.92425 | 2607 ft | 195 kts | 166° |
| 2026-04-20 05:22 | 40.65735 | 22.92709 | 2541 ft | 194 kts | 166° |
| 2026-04-20 05:22 | 40.64462 | 22.93114 | 2364 ft | 188 kts | 166° |
| 2026-04-20 05:22 | 40.63174 | 22.93525 | 2097 ft | 189 kts | 166° |
| 2026-04-20 05:23 | 40.61918 | 22.93926 | 1848 ft | 182 kts | 166° |
| 2026-04-20 05:23 | 40.60734 | 22.94304 | 1609 ft | 169 kts | 166° |
| 2026-04-20 05:23 | 40.59641 | 22.94652 | 1396 ft | 153 kts | 166° |
| 2026-04-20 05:23 | 40.58665 | 22.94963 | 1203 ft | 138 kts | 166° |
| 2026-04-20 05:24 | 40.57754 | 22.95253 | 1019 ft | 133 kts | 166° |
| 2026-04-20 05:24 | 40.56580 | 22.95627 | 780 ft | 130 kts | 165° |
| 2026-04-20 05:24 | 40.55983 | 22.95817 | 662 ft | 130 kts | 165° |
| 2026-04-20 05:24 | 40.55113 | 22.96094 | 484 ft | 130 kts | 165° |
| 2026-04-20 05:25 | 40.54235 | 22.96374 | 312 ft | 130 kts | 165° |
| 2026-04-20 05:25 | 40.53361 | 22.96652 | 137 ft | 129 kts | 165° |
| 2026-04-20 05:25 | 40.52510 | 22.96931 | 31 ft | 116 kts | 165° |
| 2026-04-20 05:25 | 40.51886 | 22.97129 | 28 ft | 67 kts | 167° |
| 2026-04-20 05:26 | 40.51591 | 22.97220 | 30 ft | 21 kts | 163° |
| 2026-04-20 05:26 | 40.51519 | 22.97262 | 30 ft | 9 kts | 135° |
| 2026-04-20 05:26 | 40.51509 | 22.97342 | 30 ft | 9 kts | 79° |
| 2026-04-20 05:26 | 40.51551 | 22.97407 | 29 ft | 10 kts | 14° |
| 2026-04-20 05:27 | 40.51614 | 22.97392 | 29 ft | 9 kts | 346° |
| 2026-04-20 05:27 | 40.51671 | 22.97374 | 29 ft | 8 kts | 346° |
| 2026-04-20 05:27 | 40.51727 | 22.97357 | 29 ft | 9 kts | 347° |
| 2026-04-20 05:27 | 40.51789 | 22.97338 | 29 ft | 8 kts | 346° |
| 2026-04-20 05:28 | 40.51817 | 22.97329 | 28 ft | 2 kts | 345° |
| 2026-04-20 05:28 | 40.51823 | 22.97326 | 28 ft | 0 kts | 345° |
| 2026-04-20 05:28 | 40.51826 | 22.97325 | 28 ft | 3 kts | 345° |
| 2026-04-20 05:28 | 40.51923 | 22.97292 | 31 ft | 23 kts | 348° |
| 2026-04-20 05:29 | 40.52027 | 22.97261 | 27 ft | 11 kts | 348° |
| 2026-04-20 05:29 | 40.52097 | 22.97240 | 28 ft | 12 kts | 346° |
| 2026-04-20 05:29 | 40.52202 | 22.97206 | 28 ft | 17 kts | 346° |
| 2026-04-20 05:29 | 40.52310 | 22.97172 | 28 ft | 16 kts | 347° |
| 2026-04-20 05:30 | 40.52382 | 22.97211 | 29 ft | 9 kts | 71° |
| 2026-04-20 05:30 | 40.52394 | 22.97275 | 29 ft | 6 kts | 75° |
| 2026-04-20 05:30 | 40.52402 | 22.97324 | 29 ft | 5 kts | 86° |
| 2026-04-20 05:30 | 40.52382 | 22.97377 | 29 ft | 7 kts | 131° |
| 2026-04-20 05:31 | 40.52368 | 22.97414 | 29 ft | 3 kts | 81° |
| 2026-04-20 05:31 | 40.52378 | 22.97432 | 29 ft | 2 kts | 50° |
| 2026-04-20 05:31 | 40.52389 | 22.97444 | 29 ft | 2 kts | 43° |
| 2026-04-20 05:31 | 40.52398 | 22.97456 | 29 ft | 1 kts | 44° |
| 2026-04-20 05:32 | 40.52402 | 22.97461 | 29 ft | 0 kts | 44° |